GMTT/TNG METAR and TAF weather

Enter ICAO airport designator
Station Type Date Time Source
GMTT METAR 2022/01/23 13:00 UTC NOAA

GMTT 231300Z 08024KT 9000 SCT033 BKN110 16/10 Q1019 NOSIG


Station Type Date Time Source
GMTT Decoded METAR 2022/01/23 13:00 UTC NOAA

Tanger Aerodrome , Morocco (GMTT) 35-44N 005-54W 21M
Jan 23, 2022 - 08:00 AM EST / 2022.01.23 1300 UTC
Wind: from the E (080 degrees) at 28 MPH (24 KT):0
Visibility: 5 mile(s):0
Sky conditions: mostly cloudy
Temperature: 60 F (16 C)
Dew Point: 50 F (10 C)
Relative Humidity: 67%
Pressure (altimeter): 30.09 in. Hg (1019 hPa)
ob: GMTT 231300Z 08024KT 9000 SCT033 BKN110 16/10 Q1019 NOSIG
cycle: 13

Station Type Date Time Source
GMTT TAF 2022/01/23 12:36 UTC NOAA

TAF TAF GMTT 231100Z 2312/2418 08022KT 9000 BKN033 SCT110 BKN200 PROB30
TEMPO 2312/2317 4000 -RA SCT016 BKN100 BKN200
TEMPO 2312/2418 09023G34KT

Example: see airport list